createdAt,value
2023-04-02T00:00:43.305Z,7.39
2023-04-02T00:01:43.333Z,7.26
2023-04-02T00:02:43.302Z,7.23
2023-04-02T00:03:43.330Z,7.25
2023-04-02T00:04:43.277Z,7.18
2023-04-02T00:05:43.246Z,7.18
2023-04-02T00:06:43.257Z,7.13
2023-04-02T00:07:43.249Z,7.15
2023-04-02T00:08:43.230Z,7.13
2023-04-02T00:09:43.214Z,7.21
2023-04-02T00:10:43.211Z,7.07
2023-04-02T00:11:43.215Z,7.13
2023-04-02T00:12:43.173Z,7.08
2023-04-02T00:13:43.197Z,7.13
2023-04-02T00:14:43.166Z,7.14
2023-04-02T00:15:43.185Z,7.14
2023-04-02T00:16:43.195Z,7.14
2023-04-02T00:17:43.151Z,7.01
2023-04-02T00:18:43.148Z,6.93
2023-04-02T00:19:43.112Z,7.04
2023-04-02T00:20:43.129Z,7.05
2023-04-02T00:21:43.106Z,7.00
2023-04-02T00:22:43.092Z,6.96
2023-04-02T00:23:43.100Z,7.00
2023-04-02T00:24:43.081Z,7.00
2023-04-02T00:25:43.147Z,6.93
2023-04-02T00:26:43.047Z,6.89
2023-04-02T00:27:43.060Z,6.77
2023-04-02T00:28:43.026Z,6.80
2023-04-02T00:29:43.047Z,6.74
2023-04-02T00:30:43.038Z,6.72
2023-04-02T00:31:43.041Z,6.78
2023-04-02T00:32:43.010Z,6.71
2023-04-02T00:33:42.976Z,6.67
2023-04-02T00:34:42.987Z,6.59
2023-04-02T00:35:43.002Z,6.65
2023-04-02T00:36:42.930Z,6.67
2023-04-02T00:37:42.952Z,6.62
2023-04-02T00:38:42.913Z,6.60
2023-04-02T00:39:42.906Z,6.64
2023-04-02T00:40:42.889Z,6.54
2023-04-02T00:41:42.890Z,6.46
2023-04-02T00:42:42.879Z,6.50
2023-04-02T00:43:42.875Z,6.46
2023-04-02T00:44:42.883Z,6.50
2023-04-02T00:45:42.859Z,6.41
2023-04-02T00:46:42.844Z,6.34
2023-04-02T00:47:42.879Z,6.41
2023-04-02T00:48:42.841Z,6.43
2023-04-02T00:49:42.819Z,6.43
2023-04-02T00:50:42.811Z,6.46
2023-04-02T00:51:42.792Z,6.32
2023-04-02T00:52:42.805Z,6.32
2023-04-02T00:53:42.778Z,6.32
2023-04-02T00:54:42.759Z,6.34
2023-04-02T00:55:42.770Z,6.22
2023-04-02T00:56:42.752Z,6.32
2023-04-02T00:57:42.742Z,6.26
2023-04-02T00:58:42.725Z,6.32
2023-04-02T00:59:42.719Z,6.20
2023-04-02T01:00:42.723Z,6.26
2023-04-02T01:01:42.898Z,6.22
2023-04-02T01:02:42.830Z,6.25
2023-04-02T01:03:42.873Z,6.34
2023-04-02T01:04:42.653Z,6.29
2023-04-02T01:05:42.647Z,6.19
2023-04-02T01:06:42.641Z,6.07
2023-04-02T01:07:42.621Z,6.16
2023-04-02T01:08:42.629Z,6.06
2023-04-02T01:09:42.621Z,6.13
2023-04-02T01:10:42.624Z,6.12
2023-04-02T01:11:42.600Z,6.05
2023-04-02T01:12:42.568Z,6.05
2023-04-02T01:13:42.565Z,6.10
2023-04-02T01:14:42.552Z,6.13
2023-04-02T01:15:42.546Z,6.06
2023-04-02T01:16:42.563Z,6.07
2023-04-02T01:17:42.604Z,6.06
2023-04-02T01:18:42.517Z,6.07
2023-04-02T01:19:42.500Z,6.01
2023-04-02T01:20:42.504Z,5.91
2023-04-02T01:21:42.544Z,6.06
2023-04-02T01:22:42.482Z,5.98
2023-04-02T01:23:42.457Z,5.95
2023-04-02T01:24:42.455Z,6.09
2023-04-02T01:25:42.459Z,5.94
2023-04-02T01:26:42.436Z,5.97
2023-04-02T01:27:42.423Z,5.98
2023-04-02T01:28:42.395Z,6.05
2023-04-02T01:29:42.410Z,5.95
2023-04-02T01:30:42.382Z,5.94
2023-04-02T01:31:42.441Z,5.94
2023-04-02T01:32:42.393Z,5.88
2023-04-02T01:33:42.369Z,5.87
2023-04-02T01:34:42.339Z,5.90
2023-04-02T01:35:42.385Z,5.87
2023-04-02T01:36:42.336Z,5.92
2023-04-02T01:37:42.300Z,5.84
2023-04-02T01:38:43.302Z,5.77
2023-04-02T01:39:42.301Z,5.79
2023-04-02T01:40:42.278Z,5.81
2023-04-02T01:41:42.285Z,5.77
2023-04-02T01:42:42.282Z,5.72
2023-04-02T01:43:42.260Z,5.80
2023-04-02T01:44:42.250Z,5.77
2023-04-02T01:45:42.227Z,5.72
2023-04-02T01:46:42.283Z,5.72
2023-04-02T01:47:42.253Z,5.73
2023-04-02T01:48:42.189Z,5.77
2023-04-02T01:49:42.210Z,5.73
2023-04-02T01:50:42.164Z,5.67
2023-04-02T01:51:42.162Z,5.74
2023-04-02T01:52:42.162Z,5.67
2023-04-02T01:53:42.128Z,5.69
2023-04-02T01:54:42.145Z,5.62
2023-04-02T01:55:42.136Z,5.74
2023-04-02T01:56:42.103Z,5.58
2023-04-02T01:57:42.108Z,5.61
2023-04-02T01:58:42.089Z,5.65
2023-04-02T01:59:42.092Z,5.67
2023-04-02T02:00:42.093Z,5.67
2023-04-02T02:01:42.057Z,5.67
2023-04-02T02:02:42.129Z,5.59
2023-04-02T02:03:42.056Z,5.61
2023-04-02T02:04:42.017Z,5.56
2023-04-02T02:05:42.021Z,5.65
2023-04-02T02:06:41.997Z,5.61
2023-04-02T02:07:41.999Z,5.64
2023-04-02T02:08:41.989Z,5.55
2023-04-02T02:09:41.970Z,5.54
2023-04-02T02:10:41.980Z,5.54
2023-04-02T02:11:41.945Z,5.51
2023-04-02T02:12:41.949Z,5.46
2023-04-02T02:13:42.252Z,5.55
2023-04-02T02:14:41.939Z,5.49
2023-04-02T02:15:41.924Z,5.47
2023-04-02T02:16:42.094Z,5.49
2023-04-02T02:17:41.970Z,5.46
2023-04-02T02:18:41.869Z,5.41
2023-04-02T02:19:41.873Z,5.33
2023-04-02T02:20:41.867Z,5.40
2023-04-02T02:21:41.869Z,5.44
2023-04-02T02:22:41.841Z,5.41
2023-04-02T02:23:41.832Z,5.44
2023-04-02T02:24:41.849Z,5.41
2023-04-02T02:25:41.833Z,5.41
2023-04-02T02:26:41.787Z,5.36
2023-04-02T02:27:41.799Z,5.41
2023-04-02T02:28:41.788Z,5.37
2023-04-02T02:29:41.783Z,5.37
2023-04-02T02:30:41.757Z,5.38
2023-04-02T02:31:41.802Z,5.43
2023-04-02T02:32:41.767Z,5.41
2023-04-02T02:33:41.742Z,5.36
2023-04-02T02:34:41.715Z,5.43
2023-04-02T02:35:41.775Z,5.41
2023-04-02T02:36:41.691Z,5.41
2023-04-02T02:37:41.704Z,5.44
2023-04-02T02:38:41.673Z,5.41
2023-04-02T02:39:41.677Z,5.40
2023-04-02T02:40:41.665Z,5.36
2023-04-02T02:41:41.652Z,5.29
2023-04-02T02:42:41.637Z,5.38
2023-04-02T02:43:41.637Z,5.36
2023-04-02T02:44:41.622Z,5.26
2023-04-02T02:45:41.650Z,5.38
2023-04-02T02:46:41.594Z,5.25
2023-04-02T02:47:41.588Z,5.29
2023-04-02T02:48:41.576Z,5.26
2023-04-02T02:49:41.584Z,5.25
2023-04-02T02:50:41.563Z,5.22
2023-04-02T02:51:41.531Z,5.25
2023-04-02T02:52:41.524Z,5.31
2023-04-02T02:53:41.519Z,5.23
2023-04-02T02:54:41.534Z,5.31
2023-04-02T02:55:41.504Z,5.22
2023-04-02T02:56:41.508Z,5.23
2023-04-02T02:57:41.488Z,5.26
2023-04-02T02:58:41.475Z,5.23
2023-04-02T02:59:41.463Z,5.26
2023-04-02T03:00:41.474Z,5.23
2023-04-02T03:01:41.476Z,5.22
2023-04-02T03:02:41.574Z,5.20
2023-04-02T03:03:41.585Z,5.16
2023-04-02T03:04:41.440Z,5.25
2023-04-02T03:05:41.462Z,5.20
2023-04-02T03:06:41.392Z,5.25
2023-04-02T03:07:41.398Z,5.16
2023-04-02T03:08:41.365Z,5.22
2023-04-02T03:09:41.353Z,5.15
2023-04-02T03:10:41.344Z,5.25
2023-04-02T03:11:41.345Z,5.16
2023-04-02T03:12:41.357Z,5.10
2023-04-02T03:13:41.324Z,5.16
2023-04-02T03:14:41.303Z,5.13
2023-04-02T03:15:41.359Z,5.13
2023-04-02T03:16:41.314Z,5.16
2023-04-02T03:17:41.319Z,5.19
2023-04-02T03:18:41.276Z,5.13
2023-04-02T03:19:41.266Z,5.19
2023-04-02T03:20:41.272Z,5.19
2023-04-02T03:21:41.242Z,5.15
2023-04-02T03:22:41.224Z,5.13
2023-04-02T03:23:41.246Z,5.08
2023-04-02T03:24:41.203Z,5.10
2023-04-02T03:25:41.195Z,5.05
2023-04-02T03:26:41.177Z,4.94
2023-04-02T03:27:41.281Z,5.02
2023-04-02T03:28:41.168Z,5.07
2023-04-02T03:29:41.159Z,5.13
2023-04-02T03:31:13.065Z,4.97
2023-04-02T03:31:41.145Z,5.02
2023-04-02T03:32:41.193Z,5.01
2023-04-02T03:33:41.113Z,4.97
2023-04-02T03:34:41.099Z,5.01
2023-04-02T03:35:41.113Z,4.86
2023-04-02T03:36:41.112Z,4.98
2023-04-02T03:37:41.068Z,5.07
2023-04-02T03:38:41.077Z,5.00
2023-04-02T03:39:41.063Z,4.90
2023-04-02T03:40:41.069Z,4.90
2023-04-02T03:41:41.021Z,4.97
2023-04-02T03:42:41.027Z,4.94
2023-04-02T03:43:41.006Z,4.86
2023-04-02T03:44:40.989Z,4.84
2023-04-02T03:45:41.027Z,4.94
2023-04-02T03:46:41.025Z,4.86
2023-04-02T03:47:40.997Z,4.83
2023-04-02T03:48:40.978Z,4.86
2023-04-02T03:49:40.950Z,4.87
2023-04-02T03:50:40.938Z,4.87
2023-04-02T03:51:40.939Z,4.92
2023-04-02T03:52:40.925Z,4.78
2023-04-02T03:53:40.895Z,4.79
2023-04-02T03:54:40.921Z,4.84
2023-04-02T03:55:41.914Z,4.71
2023-04-02T03:56:40.882Z,4.90
2023-04-02T03:57:40.886Z,4.84
2023-04-02T03:58:40.870Z,4.84
2023-04-02T03:59:40.854Z,4.75
2023-04-02T04:00:40.820Z,4.68
2023-04-02T04:01:40.849Z,4.79
2023-04-02T04:02:40.856Z,4.83
2023-04-02T04:03:40.856Z,4.74
2023-04-02T04:04:40.792Z,4.84
2023-04-02T04:05:40.774Z,4.75
2023-04-02T04:06:40.775Z,4.68
2023-04-02T04:07:40.775Z,4.78
2023-04-02T04:08:40.730Z,4.83
2023-04-02T04:09:40.758Z,4.74
2023-04-02T04:10:40.725Z,4.84
2023-04-02T04:11:40.718Z,4.70
2023-04-02T04:12:40.712Z,4.74
2023-04-02T04:13:40.689Z,4.78
2023-04-02T04:14:41.360Z,4.76
2023-04-02T04:15:40.668Z,4.74
2023-04-02T04:16:40.735Z,4.75
2023-04-02T04:17:40.699Z,4.68
2023-04-02T04:18:40.666Z,4.70
2023-04-02T04:19:40.637Z,4.70
2023-04-02T04:20:40.602Z,4.67
2023-04-02T04:21:40.605Z,4.60
2023-04-02T04:22:40.620Z,4.61
2023-04-02T04:23:40.604Z,4.75
2023-04-02T04:24:40.557Z,4.64
2023-04-02T04:25:40.602Z,4.70
2023-04-02T04:26:40.550Z,4.61
2023-04-02T04:27:40.543Z,4.74
2023-04-02T04:28:40.571Z,4.75
2023-04-02T04:29:40.526Z,4.64
2023-04-02T04:30:40.499Z,4.63
2023-04-02T04:31:40.536Z,4.66
2023-04-02T04:32:40.568Z,4.63
2023-04-02T04:33:40.496Z,4.63
2023-04-02T04:34:40.464Z,4.57
2023-04-02T04:35:40.629Z,4.53
2023-04-02T04:36:40.482Z,4.61
2023-04-02T04:37:42.682Z,4.61
2023-04-02T04:38:40.416Z,4.64
2023-04-02T04:39:40.419Z,4.61
2023-04-02T04:40:40.455Z,4.61
2023-04-02T04:41:40.377Z,4.61
2023-04-02T04:42:40.408Z,4.61
2023-04-02T04:43:40.379Z,4.61
2023-04-02T04:44:40.363Z,4.56
2023-04-02T04:45:40.417Z,4.68
2023-04-02T04:46:40.373Z,4.61
2023-04-02T04:47:40.388Z,4.63
2023-04-02T04:48:40.306Z,4.58
2023-04-02T04:49:40.334Z,4.49
2023-04-02T04:50:40.317Z,4.53
2023-04-02T04:51:40.300Z,4.56
2023-04-02T04:52:40.318Z,4.50
2023-04-02T04:53:40.273Z,4.52
2023-04-02T04:54:40.247Z,4.49
2023-04-02T04:55:40.293Z,4.49
2023-04-02T04:56:40.287Z,4.48
2023-04-02T04:57:40.210Z,4.48
2023-04-02T04:58:40.255Z,4.49
2023-04-02T04:59:40.221Z,4.52
2023-04-02T05:00:41.195Z,4.39
2023-04-02T05:01:40.199Z,4.39
2023-04-02T05:02:40.214Z,4.38
2023-04-02T05:03:40.184Z,4.22
2023-04-02T05:04:40.197Z,4.20
2023-04-02T05:05:40.142Z,4.12
2023-04-02T05:06:40.148Z,4.09
2023-04-02T05:07:40.132Z,4.25
2023-04-02T05:08:40.127Z,4.21
2023-04-02T05:09:40.107Z,4.14
2023-04-02T05:10:40.110Z,3.95
2023-04-02T05:11:40.086Z,4.02
2023-04-02T05:12:40.056Z,3.86
2023-04-02T05:13:40.081Z,3.92
2023-04-02T05:14:40.066Z,3.96
2023-04-02T05:15:40.123Z,4.03
2023-04-02T05:16:40.074Z,3.99
2023-04-02T05:17:40.077Z,4.06
2023-04-02T05:18:40.009Z,3.96
2023-04-02T05:19:40.000Z,3.96
2023-04-02T05:20:40.002Z,3.99
2023-04-02T05:21:39.973Z,3.95
2023-04-02T05:22:41.388Z,3.92
2023-04-02T05:23:39.965Z,3.95
2023-04-02T05:24:39.925Z,3.92
2023-04-02T05:25:39.941Z,3.91
2023-04-02T05:26:39.951Z,3.82
2023-04-02T05:27:39.922Z,3.92
2023-04-02T05:28:39.880Z,3.95
2023-04-02T05:29:39.900Z,3.95
2023-04-02T05:30:39.864Z,3.73
2023-04-02T05:31:39.955Z,3.92
2023-04-02T05:32:39.937Z,3.82
2023-04-02T05:33:39.856Z,3.81
2023-04-02T05:34:39.839Z,3.77
2023-04-02T05:35:39.880Z,3.85
2023-04-02T05:36:39.825Z,3.89
2023-04-02T05:37:39.842Z,3.96
2023-04-02T05:38:39.789Z,3.88
2023-04-02T05:39:39.786Z,3.78
2023-04-02T05:40:39.783Z,3.81
2023-04-02T05:41:39.760Z,3.76
2023-04-02T05:42:39.743Z,3.77
2023-04-02T05:43:39.769Z,3.86
2023-04-02T05:44:39.765Z,3.91
2023-04-02T05:45:39.698Z,3.78
2023-04-02T05:46:39.760Z,3.86
2023-04-02T05:47:39.750Z,3.74
2023-04-02T05:48:39.696Z,3.73
2023-04-02T05:49:39.677Z,3.78
2023-04-02T05:50:39.698Z,3.73
2023-04-02T05:51:39.664Z,3.71
2023-04-02T05:52:39.631Z,3.73
2023-04-02T05:53:40.657Z,3.85
2023-04-02T05:54:39.615Z,3.82
2023-04-02T05:55:39.634Z,3.84
2023-04-02T05:56:39.622Z,3.67
2023-04-02T05:57:46.754Z,3.76
2023-04-02T05:59:39.583Z,3.82
2023-04-02T06:00:39.593Z,3.82
2023-04-02T06:01:39.586Z,3.73
2023-04-02T06:02:39.646Z,3.82
2023-04-02T06:03:39.605Z,3.76
2023-04-02T06:04:39.522Z,3.73
2023-04-02T06:05:39.522Z,3.64
2023-04-02T06:06:39.535Z,3.61
2023-04-02T06:07:39.504Z,3.63
2023-04-02T06:08:39.518Z,3.67
2023-04-02T06:09:39.491Z,3.67
2023-04-02T06:10:39.438Z,3.66
2023-04-02T06:11:39.447Z,3.55
2023-04-02T06:12:39.449Z,3.53
2023-04-02T06:13:39.425Z,3.53
2023-04-02T06:14:39.405Z,3.64
2023-04-02T06:15:39.407Z,3.68
2023-04-02T06:16:39.479Z,3.67
2023-04-02T06:17:39.400Z,3.64
2023-04-02T06:18:39.387Z,3.49
2023-04-02T06:19:39.363Z,3.50
2023-04-02T06:20:39.341Z,3.37
2023-04-02T06:21:39.335Z,3.53
2023-04-02T06:22:39.358Z,3.46
2023-04-02T06:23:39.311Z,3.46
2023-04-02T06:24:39.297Z,3.45
2023-04-02T06:25:39.304Z,3.46
2023-04-02T06:26:39.282Z,3.37
2023-04-02T06:27:39.266Z,3.45
2023-04-02T06:28:39.274Z,3.48
2023-04-02T06:29:39.251Z,3.45
2023-04-02T06:30:39.312Z,3.27
2023-04-02T06:31:39.251Z,3.29
2023-04-02T06:32:39.287Z,3.43
2023-04-02T06:33:39.198Z,3.45
2023-04-02T06:34:39.216Z,3.34
2023-04-02T06:35:39.288Z,3.24
2023-04-02T06:36:39.176Z,3.37
2023-04-02T06:37:39.189Z,3.26
2023-04-02T06:38:39.171Z,3.33
2023-04-02T06:39:39.146Z,3.37
2023-04-02T06:40:39.131Z,3.31
2023-04-02T06:41:39.130Z,3.40
2023-04-02T06:42:39.150Z,3.30
2023-04-02T06:43:39.111Z,3.46
2023-04-02T06:44:39.099Z,3.29
2023-04-02T06:45:39.090Z,3.34
2023-04-02T06:46:39.091Z,3.34
2023-04-02T06:47:39.161Z,3.22
2023-04-02T06:48:39.044Z,3.30
2023-04-02T06:49:39.080Z,3.30
2023-04-02T06:50:39.019Z,3.37
2023-04-02T06:51:39.037Z,3.43
2023-04-02T06:52:39.030Z,3.52
2023-04-02T06:53:39.029Z,3.49
2023-04-02T06:54:39.115Z,3.49
2023-04-02T06:55:39.243Z,3.45
2023-04-02T06:56:38.998Z,3.41
2023-04-02T06:57:39.302Z,3.56
2023-04-02T06:58:38.974Z,3.59
2023-04-02T06:59:38.943Z,3.66
2023-04-02T07:00:38.942Z,3.66
2023-04-02T07:01:38.949Z,3.50
2023-04-02T07:02:38.957Z,3.53
2023-04-02T07:03:38.903Z,3.49
2023-04-02T07:04:38.900Z,3.49
2023-04-02T07:05:41.002Z,3.58
2023-04-02T07:06:38.864Z,3.53
2023-04-02T07:07:38.876Z,3.67
2023-04-02T07:08:38.863Z,3.77
2023-04-02T07:09:38.842Z,3.63
2023-04-02T07:10:38.829Z,3.78
2023-04-02T07:11:38.823Z,3.68
2023-04-02T07:12:38.845Z,3.67
2023-04-02T07:13:38.807Z,3.64
2023-04-02T07:14:38.758Z,3.67
2023-04-02T07:15:38.798Z,3.52
2023-04-02T07:16:38.788Z,3.49
2023-04-02T07:17:38.785Z,3.55
2023-04-02T07:18:38.725Z,3.56
2023-04-02T07:19:38.736Z,3.53
2023-04-02T07:20:38.734Z,3.61
2023-04-02T07:21:38.694Z,3.63
2023-04-02T07:22:38.719Z,3.67
2023-04-02T07:23:38.695Z,3.67
2023-04-02T07:24:38.684Z,3.67
2023-04-02T07:25:38.664Z,3.73
2023-04-02T07:26:38.698Z,3.86
2023-04-02T07:27:38.651Z,3.78
2023-04-02T07:28:38.614Z,3.84
2023-04-02T07:29:39.668Z,3.96
2023-04-02T07:30:38.601Z,4.03
2023-04-02T07:31:38.629Z,4.07
2023-04-02T07:32:38.677Z,4.10
2023-04-02T07:33:40.100Z,4.14
2023-04-02T07:34:38.565Z,4.10
2023-04-02T07:35:38.709Z,4.14
2023-04-02T07:36:38.562Z,4.22
2023-04-02T07:37:38.544Z,4.14
2023-04-02T07:38:38.542Z,4.22
2023-04-02T07:39:40.238Z,4.28
2023-04-02T07:40:38.506Z,4.22
2023-04-02T07:41:38.489Z,4.34
2023-04-02T07:42:38.498Z,4.32
2023-04-02T07:43:38.488Z,4.22
2023-04-02T07:44:38.457Z,4.20
2023-04-02T07:45:38.725Z,4.22
2023-04-02T07:46:38.484Z,4.14
2023-04-02T07:47:38.469Z,4.30
2023-04-02T07:48:38.414Z,4.28
2023-04-02T07:49:38.425Z,4.27
2023-04-02T07:50:38.413Z,4.18
2023-04-02T07:51:38.396Z,4.24
2023-04-02T07:52:40.347Z,4.30
2023-04-02T07:53:39.386Z,4.30
2023-04-02T07:54:38.395Z,4.14
2023-04-02T07:55:38.368Z,4.20
2023-04-02T07:56:38.365Z,4.06
2023-04-02T07:57:38.321Z,4.06
2023-04-02T07:58:39.318Z,3.94
2023-04-02T07:59:38.333Z,4.03
2023-04-02T08:00:38.302Z,4.10
2023-04-02T08:01:38.297Z,4.06
2023-04-02T08:02:38.320Z,4.07
2023-04-02T08:03:38.357Z,3.96
2023-04-02T08:04:38.520Z,3.84
2023-04-02T08:05:38.299Z,3.91
2023-04-02T08:06:38.243Z,3.95
2023-04-02T08:07:38.240Z,3.91
2023-04-02T08:08:38.209Z,3.61
2023-04-02T08:09:38.214Z,3.61
2023-04-02T08:10:38.181Z,3.66
2023-04-02T08:11:38.168Z,3.70
2023-04-02T08:12:38.186Z,3.59
2023-04-02T08:13:38.179Z,3.55
2023-04-02T08:14:38.162Z,3.64
2023-04-02T08:15:38.265Z,3.66
2023-04-02T08:16:38.219Z,3.68
2023-04-02T08:17:38.163Z,3.92
2023-04-02T08:18:38.125Z,3.86
2023-04-02T08:19:48.024Z,3.89
2023-04-02T08:20:40.090Z,3.74
2023-04-02T08:21:38.087Z,3.74
2023-04-02T08:22:38.095Z,3.84
2023-04-02T08:23:38.073Z,3.85
2023-04-02T08:24:39.016Z,3.91
2023-04-02T08:25:38.041Z,3.92
2023-04-02T08:26:38.002Z,3.82
2023-04-02T08:27:38.022Z,3.92
2023-04-02T08:28:38.038Z,3.84
2023-04-02T08:29:38.003Z,3.99
2023-04-02T08:30:37.977Z,3.95
2023-04-02T08:31:37.967Z,3.95
2023-04-02T08:32:38.122Z,3.95
2023-04-02T08:33:37.930Z,3.92
2023-04-02T08:34:37.969Z,3.89
2023-04-02T08:35:38.131Z,4.03
2023-04-02T08:36:37.926Z,4.02
2023-04-02T08:37:37.914Z,3.96
2023-04-02T08:38:37.912Z,4.10
2023-04-02T08:39:37.893Z,4.10
2023-04-02T08:40:37.862Z,4.10
2023-04-02T08:41:37.885Z,4.20
2023-04-02T08:42:37.846Z,4.21
2023-04-02T08:43:37.864Z,4.18
2023-04-02T08:44:37.870Z,4.18
2023-04-02T08:45:37.824Z,4.13
2023-04-02T08:46:37.863Z,4.21
2023-04-02T08:47:37.810Z,4.32
2023-04-02T08:48:37.809Z,4.45
2023-04-02T08:49:37.817Z,4.36
2023-04-02T08:50:37.798Z,4.24
2023-04-02T08:51:37.777Z,4.21
2023-04-02T08:52:37.783Z,4.34
2023-04-02T08:53:37.742Z,4.18
2023-04-02T08:54:37.726Z,4.06
2023-04-02T08:55:37.874Z,4.22
2023-04-02T08:56:37.716Z,4.24
2023-04-02T08:57:37.673Z,4.16
2023-04-02T08:58:37.701Z,4.10
2023-04-02T08:59:37.688Z,4.14
2023-04-02T09:00:38.023Z,4.13
2023-04-02T09:01:38.705Z,4.16
2023-04-02T09:02:37.697Z,4.22
2023-04-02T09:03:37.636Z,4.21
2023-04-02T09:04:37.639Z,4.21
2023-04-02T09:05:38.054Z,4.13
2023-04-02T09:06:37.611Z,4.12
2023-04-02T09:07:37.597Z,4.20
2023-04-02T09:08:37.619Z,4.18
2023-04-02T09:09:37.562Z,4.32
2023-04-02T09:10:37.554Z,4.28
2023-04-02T09:11:37.556Z,4.40
2023-04-02T09:12:37.553Z,4.21
2023-04-02T09:13:37.546Z,4.06
2023-04-02T09:14:37.530Z,4.20
2023-04-02T09:15:37.810Z,4.38
2023-04-02T09:16:37.479Z,4.34
2023-04-02T09:17:50.524Z,4.42
2023-04-02T09:18:39.575Z,4.49
2023-04-02T09:19:37.482Z,4.46
2023-04-02T09:20:37.443Z,4.52
2023-04-02T09:21:37.458Z,4.58
2023-04-02T09:22:37.445Z,4.57
2023-04-02T09:23:37.431Z,4.61
2023-04-02T09:24:37.392Z,4.68
2023-04-02T09:25:37.523Z,4.42
2023-04-02T09:26:37.398Z,4.49
2023-04-02T09:27:37.383Z,4.52
2023-04-02T09:28:37.353Z,4.52
2023-04-02T09:29:37.381Z,4.48
2023-04-02T09:30:37.333Z,4.57
2023-04-02T09:32:09.269Z,4.66
2023-04-02T09:32:37.397Z,4.74
2023-04-02T09:33:37.305Z,4.74
2023-04-02T09:34:37.312Z,4.71
2023-04-02T09:35:37.450Z,4.83
2023-04-02T09:36:37.307Z,4.79
2023-04-02T09:37:37.278Z,4.75
2023-04-02T09:38:37.257Z,4.78
2023-04-02T09:39:37.249Z,4.82
2023-04-02T09:40:37.251Z,4.83
2023-04-02T09:41:37.362Z,4.83
2023-04-02T09:42:37.213Z,4.90
2023-04-02T09:43:37.198Z,4.83
2023-04-02T09:44:37.233Z,4.87
2023-04-02T09:45:37.288Z,4.95
2023-04-02T09:46:37.241Z,4.94
2023-04-02T09:47:37.307Z,5.08
2023-04-02T09:48:38.201Z,5.02
2023-04-02T09:49:37.156Z,5.01
2023-04-02T09:50:37.139Z,5.08
2023-04-02T09:51:37.130Z,5.15
2023-04-02T09:52:37.103Z,5.16
2023-04-02T09:53:37.119Z,5.19
2023-04-02T09:54:37.090Z,5.15
2023-04-02T09:55:37.296Z,5.07
2023-04-02T09:56:37.085Z,5.15
2023-04-02T09:57:37.045Z,5.12
2023-04-02T09:58:38.059Z,5.05
2023-04-02T09:59:37.056Z,5.07
2023-04-02T10:00:37.020Z,5.08
2023-04-02T10:01:37.164Z,5.01
2023-04-02T10:02:37.089Z,5.08
2023-04-02T10:03:36.998Z,5.12
2023-04-02T10:04:37.022Z,5.18
2023-04-02T10:05:40.948Z,5.08
2023-04-02T10:06:38.043Z,5.08
2023-04-02T10:07:36.955Z,5.18
2023-04-02T10:08:36.954Z,5.16
2023-04-02T10:09:36.970Z,5.19
2023-04-02T10:10:37.057Z,5.12
2023-04-02T10:12:37.906Z,5.04
2023-04-02T10:13:36.891Z,5.10
2023-04-02T10:14:36.884Z,5.19
2023-04-02T10:15:37.085Z,5.18
2023-04-02T10:16:36.903Z,5.25
2023-04-02T10:17:36.880Z,5.38
2023-04-02T10:18:36.845Z,5.34
2023-04-02T10:19:36.833Z,5.22
2023-04-02T10:20:48.684Z,5.28
2023-04-02T10:21:37.810Z,5.31
2023-04-02T10:22:36.805Z,5.07
2023-04-02T10:23:36.771Z,5.16
2023-04-02T10:24:36.795Z,5.28
2023-04-02T10:25:36.980Z,5.33
2023-04-02T10:26:36.769Z,5.33
2023-04-02T10:27:36.740Z,5.41
2023-04-02T10:28:36.734Z,5.59
2023-04-02T10:29:36.725Z,5.81
2023-04-02T10:30:36.732Z,5.87
2023-04-02T10:31:36.708Z,5.77
2023-04-02T10:32:36.738Z,5.59
2023-04-02T10:33:36.673Z,5.62
2023-04-02T10:34:36.684Z,5.64
2023-04-02T10:35:36.808Z,5.58
2023-04-02T10:36:36.656Z,5.54
2023-04-02T10:37:36.661Z,5.58
2023-04-02T10:38:36.651Z,5.59
2023-04-02T10:39:36.618Z,5.67
2023-04-02T10:40:36.616Z,5.76
2023-04-02T10:41:36.609Z,5.76
2023-04-02T10:42:36.590Z,5.67
2023-04-02T10:43:36.587Z,5.64
2023-04-02T10:44:36.572Z,5.67
2023-04-02T10:45:36.882Z,5.59
2023-04-02T10:46:36.643Z,5.69
2023-04-02T10:47:36.579Z,5.76
2023-04-02T10:48:36.562Z,5.59
2023-04-02T10:49:36.609Z,5.67
2023-04-02T10:50:36.541Z,5.76
2023-04-02T10:51:36.517Z,5.81
2023-04-02T10:52:36.517Z,5.97
2023-04-02T10:53:36.532Z,5.94
2023-04-02T10:54:36.491Z,5.87
2023-04-02T10:55:36.694Z,5.79
2023-04-02T10:56:47.990Z,5.77
2023-04-02T10:57:38.506Z,5.76
2023-04-02T10:58:36.452Z,5.72
2023-04-02T10:59:36.432Z,5.52
2023-04-02T11:00:36.411Z,5.52
2023-04-02T11:01:36.411Z,5.59
2023-04-02T11:02:37.556Z,5.55
2023-04-02T11:03:36.454Z,5.65
2023-04-02T11:04:36.383Z,5.51
2023-04-02T11:05:36.568Z,5.51
2023-04-02T11:06:36.353Z,5.67
2023-04-02T11:07:36.364Z,5.52
2023-04-02T11:08:36.368Z,5.61
2023-04-02T11:09:36.320Z,5.52
2023-04-02T11:10:36.322Z,5.47
2023-04-02T11:11:36.311Z,5.59
2023-04-02T11:12:41.410Z,5.64
2023-04-02T11:13:37.318Z,5.52
2023-04-02T11:14:36.270Z,5.65
2023-04-02T11:15:36.652Z,5.72
2023-04-02T11:16:40.681Z,5.72
2023-04-02T11:17:38.302Z,5.76
2023-04-02T11:18:36.220Z,5.69
2023-04-02T11:19:36.203Z,5.77
2023-04-02T11:20:36.223Z,5.74
2023-04-02T11:21:42.229Z,5.67
2023-04-02T11:22:38.198Z,5.67
2023-04-02T11:23:36.193Z,5.72
2023-04-02T11:24:36.161Z,5.54
2023-04-02T11:25:36.468Z,5.72
2023-04-02T11:26:36.205Z,5.69
2023-04-02T11:27:36.126Z,5.64
2023-04-02T11:28:36.106Z,5.64
2023-04-02T11:29:36.175Z,5.61
2023-04-02T11:30:36.098Z,5.58
2023-04-02T11:31:36.128Z,5.58
2023-04-02T11:32:36.084Z,5.64
2023-04-02T11:33:38.333Z,5.72
2023-04-02T11:34:37.056Z,5.79
2023-04-02T11:35:36.336Z,5.69
2023-04-02T11:36:36.064Z,5.69
2023-04-02T11:37:36.048Z,5.72
2023-04-02T11:38:36.053Z,5.69
2023-04-02T11:39:36.011Z,5.62
2023-04-02T11:40:36.008Z,5.58
2023-04-02T11:41:35.988Z,5.59
2023-04-02T11:42:36.012Z,5.54
2023-04-02T11:43:36.096Z,5.58
2023-04-02T11:44:35.955Z,5.52
2023-04-02T11:45:46.428Z,5.49
2023-04-02T11:46:37.969Z,5.46
2023-04-02T11:47:35.950Z,5.58
2023-04-02T11:48:35.934Z,5.54
2023-04-02T11:49:35.899Z,5.62
2023-04-02T11:50:35.907Z,5.51
2023-04-02T11:51:35.906Z,5.47
2023-04-02T11:52:35.877Z,5.44
2023-04-02T11:53:35.871Z,5.51
2023-04-02T11:54:35.866Z,5.52
2023-04-02T11:55:36.078Z,5.67
2023-04-02T11:56:35.841Z,5.61
2023-04-02T11:57:35.983Z,5.64
2023-04-02T11:58:35.818Z,5.54
2023-04-02T11:59:35.798Z,5.43
2023-04-02T12:00:35.966Z,5.55
2023-04-02T12:01:35.787Z,5.59
2023-04-02T12:02:35.874Z,5.67
2023-04-02T12:03:35.745Z,5.79
2023-04-02T12:04:35.758Z,5.92
2023-04-02T12:05:35.893Z,6.01
2023-04-02T12:06:35.725Z,6.09
2023-04-02T12:07:35.724Z,6.17
2023-04-02T12:08:44.289Z,6.10
2023-04-02T12:09:36.689Z,5.83
2023-04-02T12:10:35.692Z,5.67
2023-04-02T12:11:35.676Z,5.67
2023-04-02T12:12:35.655Z,5.74
2023-04-02T12:13:35.670Z,5.79
2023-04-02T12:14:35.680Z,5.88
2023-04-02T12:15:35.774Z,5.91
2023-04-02T12:16:35.665Z,5.95
2023-04-02T12:17:35.623Z,5.91
2023-04-02T12:18:35.600Z,5.91
2023-04-02T12:19:35.604Z,6.01
2023-04-02T12:20:35.785Z,6.07
2023-04-02T12:21:35.584Z,6.06
2023-04-02T12:22:35.573Z,5.91
2023-04-02T12:23:35.562Z,5.94
2023-04-02T12:24:35.572Z,5.88
2023-04-02T12:25:35.536Z,6.09
2023-04-02T12:26:35.539Z,6.32
2023-04-02T12:27:35.533Z,6.34
2023-04-02T12:28:35.516Z,6.50
2023-04-02T12:29:35.480Z,6.65
2023-04-02T12:30:35.648Z,6.70
2023-04-02T12:31:35.485Z,6.87
2023-04-02T12:32:35.476Z,7.03
2023-04-02T12:33:35.441Z,7.15
2023-04-02T12:34:35.434Z,7.04
2023-04-02T12:35:35.504Z,6.95
2023-04-02T12:36:35.460Z,7.25
2023-04-02T12:37:35.403Z,7.39
2023-04-02T12:38:35.428Z,7.51
2023-04-02T12:39:35.385Z,7.58
2023-04-02T12:40:35.662Z,7.56
2023-04-02T12:41:35.376Z,7.26
2023-04-02T12:42:35.349Z,7.13
2023-04-02T12:43:35.358Z,7.19
2023-04-02T12:44:35.367Z,7.14
2023-04-02T12:45:35.338Z,7.13
2023-04-02T12:46:35.418Z,7.18
2023-04-02T12:47:35.359Z,7.33
2023-04-02T12:48:35.300Z,7.31
2023-04-02T12:49:35.269Z,7.05
2023-04-02T12:50:35.513Z,7.14
2023-04-02T12:51:35.264Z,7.32
2023-04-02T12:52:35.245Z,7.15
2023-04-02T12:53:35.227Z,7.26
2023-04-02T12:54:35.217Z,7.47
2023-04-02T12:55:35.226Z,7.58
2023-04-02T12:56:35.207Z,7.85
2023-04-02T12:57:35.308Z,7.96
2023-04-02T12:58:35.182Z,7.78
2023-04-02T12:59:35.167Z,7.46
2023-04-02T13:00:35.413Z,7.59
2023-04-02T13:01:35.185Z,7.78
2023-04-02T13:02:35.222Z,7.87
2023-04-02T13:03:35.148Z,8.02
2023-04-02T13:04:35.119Z,8.24
2023-04-02T13:05:35.115Z,8.28
2023-04-02T13:06:35.111Z,8.45
2023-04-02T13:07:35.085Z,8.60
2023-04-02T13:08:35.083Z,8.41
2023-04-02T13:09:35.066Z,8.52
2023-04-02T13:10:35.387Z,8.72
2023-04-02T13:11:35.054Z,8.56
2023-04-02T13:12:35.037Z,8.42
2023-04-02T13:13:35.015Z,8.54
2023-04-02T13:14:35.001Z,8.66
2023-04-02T13:15:34.994Z,8.89
2023-04-02T13:16:35.104Z,9.15
2023-04-02T13:17:35.013Z,9.12
2023-04-02T13:18:34.953Z,9.21
2023-04-02T13:19:34.979Z,9.13
2023-04-02T13:20:35.225Z,8.82